createdAt,value
2022-12-15T00:06:51.662Z,3.13
2022-12-15T00:12:14.793Z,3.03
2022-12-15T00:17:36.078Z,2.50
2022-12-15T00:22:56.988Z,3.03
2022-12-15T00:28:20.139Z,3.13
2022-12-15T00:33:41.041Z,3.57
2022-12-15T00:38:45.293Z,4.90
2022-12-15T00:43:50.234Z,4.13
2022-12-15T00:48:53.811Z,2.67
2022-12-15T00:54:18.075Z,3.53
2022-12-15T00:59:40.853Z,2.70
2022-12-15T01:05:01.719Z,2.10
2022-12-15T01:10:23.104Z,2.80
2022-12-15T01:15:45.936Z,3.00
2022-12-15T01:20:56.579Z,2.47
2022-12-15T01:26:00.204Z,3.10
2022-12-15T01:31:11.583Z,2.57
2022-12-15T01:36:15.298Z,2.70
2022-12-15T01:41:19.062Z,2.10
2022-12-15T01:46:25.720Z,2.93
2022-12-15T01:51:34.859Z,3.30
2022-12-15T01:56:40.979Z,3.70
2022-12-15T02:01:49.775Z,4.50
2022-12-15T02:06:54.108Z,3.67
2022-12-15T02:12:11.339Z,4.60
2022-12-15T02:17:25.844Z,4.63
2022-12-15T02:22:46.160Z,2.87
2022-12-15T02:27:57.737Z,3.17
2022-12-15T02:33:11.357Z,3.50
2022-12-15T02:38:15.150Z,2.83
2022-12-15T02:43:18.764Z,4.40
2022-12-15T02:48:31.802Z,4.80
2022-12-15T02:54:01.346Z,4.60
2022-12-15T02:59:11.890Z,5.03
2022-12-15T03:04:17.562Z,4.10
2022-12-15T03:09:21.164Z,4.80
2022-12-15T03:14:25.422Z,5.43
2022-12-15T03:19:30.399Z,5.37
2022-12-15T03:24:34.002Z,4.40
2022-12-15T03:29:37.560Z,3.53
2022-12-15T03:34:42.747Z,3.50
2022-12-15T03:39:46.310Z,3.77
2022-12-15T03:44:50.170Z,3.10
2022-12-15T03:49:55.131Z,4.13
2022-12-15T03:54:58.704Z,2.83
2022-12-15T04:00:02.461Z,3.20
2022-12-15T04:05:20.878Z,2.90
2022-12-15T04:10:31.746Z,2.57
2022-12-15T04:15:39.095Z,3.07
2022-12-15T04:20:44.106Z,3.53
2022-12-15T04:26:05.227Z,3.23
2022-12-15T04:31:27.648Z,2.83
2022-12-15T04:36:51.660Z,2.60
2022-12-15T04:42:13.848Z,3.23
2022-12-15T04:47:34.944Z,2.33
2022-12-15T04:52:57.148Z,2.80
2022-12-15T04:58:23.399Z,3.07
2022-12-15T05:03:44.684Z,2.47
2022-12-15T05:09:07.185Z,2.60
2022-12-15T05:14:28.366Z,2.80
2022-12-15T05:19:49.712Z,2.57
2022-12-15T05:25:11.926Z,2.73
2022-12-15T05:30:33.012Z,2.40
2022-12-15T05:35:36.584Z,2.73
2022-12-15T05:40:41.530Z,2.90
2022-12-15T05:45:45.144Z,3.53
2022-12-15T05:50:48.724Z,3.80
2022-12-15T05:55:54.604Z,3.17
2022-12-15T06:01:04.761Z,2.90
2022-12-15T06:06:09.827Z,4.20
2022-12-15T06:11:16.453Z,5.03
2022-12-15T06:16:21.406Z,6.53
2022-12-15T06:21:27.436Z,7.17
2022-12-15T06:26:34.585Z,7.60
2022-12-15T06:31:39.018Z,7.57
2022-12-15T06:36:43.984Z,9.50
2022-12-15T06:41:48.886Z,10.07
2022-12-15T06:46:52.553Z,9.23
2022-12-15T06:51:56.181Z,10.37
2022-12-15T06:57:01.117Z,10.50
2022-12-15T07:02:04.918Z,8.97
2022-12-15T07:07:09.930Z,10.20
2022-12-15T07:12:14.887Z,7.47
2022-12-15T07:17:18.432Z,8.77
2022-12-15T07:22:22.698Z,8.93
2022-12-15T07:27:28.001Z,10.80
2022-12-15T07:32:31.533Z,10.47
2022-12-15T07:37:35.632Z,10.10
2022-12-15T07:42:40.796Z,8.73
2022-12-15T07:47:44.587Z,10.63
2022-12-15T07:52:48.289Z,8.53
2022-12-15T07:57:53.211Z,9.40
2022-12-15T08:02:56.890Z,9.43
2022-12-15T08:08:00.545Z,9.13
2022-12-15T08:13:05.451Z,9.80
2022-12-15T08:18:10.112Z,8.70
2022-12-15T08:23:13.762Z,12.97
2022-12-15T08:28:19.598Z,11.67
2022-12-15T08:33:23.219Z,13.03
2022-12-15T08:38:26.725Z,15.00
2022-12-15T08:43:32.160Z,10.70
2022-12-15T08:48:36.372Z,8.50
2022-12-15T08:53:40.034Z,9.50
2022-12-15T08:58:45.777Z,10.20
2022-12-15T09:03:50.069Z,11.27
2022-12-15T09:08:56.501Z,10.43
2022-12-15T09:14:01.604Z,9.57
2022-12-15T09:19:05.734Z,8.23
2022-12-15T09:24:16.469Z,9.13
2022-12-15T09:29:27.291Z,9.00
2022-12-15T09:34:30.921Z,9.03
2022-12-15T09:39:34.473Z,8.47
2022-12-15T09:44:40.251Z,11.67
2022-12-15T09:49:51.881Z,10.33
2022-12-15T09:54:55.854Z,9.97
2022-12-15T10:00:12.766Z,10.13
2022-12-15T10:05:50.007Z,10.13
2022-12-15T10:10:56.688Z,9.93
2022-12-15T10:16:06.733Z,8.73
2022-12-15T10:21:14.227Z,10.10
2022-12-15T10:26:21.304Z,10.77
2022-12-15T10:31:34.571Z,8.83
2022-12-15T10:36:38.610Z,7.30
2022-12-15T10:41:42.252Z,7.57
2022-12-15T10:46:47.316Z,6.70
2022-12-15T10:51:57.188Z,8.30
2022-12-15T10:57:04.195Z,6.43
2022-12-15T11:02:29.632Z,6.60
2022-12-15T11:07:39.569Z,6.60
2022-12-15T11:12:52.356Z,8.40
2022-12-15T11:18:12.651Z,11.80
2022-12-15T11:23:22.540Z,12.23
2022-12-15T11:28:33.961Z,8.57
2022-12-15T11:33:39.399Z,8.00
2022-12-15T11:38:47.515Z,10.97
2022-12-15T11:44:06.673Z,11.97
2022-12-15T11:49:45.783Z,10.70
2022-12-15T11:54:56.871Z,8.93
2022-12-15T12:00:07.261Z,7.30
2022-12-15T12:05:37.054Z,8.20
2022-12-15T12:10:50.754Z,9.87
2022-12-15T12:16:03.041Z,7.10
2022-12-15T12:21:11.644Z,7.47
2022-12-15T12:26:24.685Z,7.93
2022-12-15T12:31:41.751Z,9.50
2022-12-15T12:36:50.016Z,7.23
2022-12-15T12:42:01.615Z,9.03
2022-12-15T12:47:13.025Z,8.10
2022-12-15T12:52:23.587Z,6.97
2022-12-15T12:57:38.841Z,6.07
2022-12-15T13:02:48.898Z,9.57
2022-12-15T13:08:29.371Z,10.43
2022-12-15T13:19:09.748Z,7.50
2022-12-15T13:24:28.860Z,7.93
2022-12-15T13:29:32.552Z,8.03
2022-12-15T13:34:39.560Z,6.10
2022-12-15T13:39:58.839Z,5.27
2022-12-15T13:45:39.668Z,5.80
2022-12-15T13:50:52.247Z,5.63
2022-12-15T13:56:06.973Z,9.10
2022-12-15T14:01:23.963Z,5.80
2022-12-15T14:06:35.945Z,4.90
2022-12-15T14:11:58.347Z,4.50
2022-12-15T14:17:07.629Z,3.57
2022-12-15T14:27:50.785Z,4.00
2022-12-15T14:32:59.063Z,3.50
2022-12-15T14:38:07.013Z,3.23
2022-12-15T14:43:20.187Z,3.87
2022-12-15T14:48:44.846Z,3.87
2022-12-15T14:53:53.250Z,3.47
2022-12-15T14:59:03.646Z,3.37
2022-12-15T15:03:05.231Z,8.50
2022-12-15T15:04:22.698Z,3.37
2022-12-15T15:09:28.566Z,3.17
2022-12-15T15:14:38.765Z,3.63
2022-12-15T15:19:51.719Z,3.20
2022-12-15T15:24:55.282Z,2.90
2022-12-15T15:30:18.387Z,3.80
2022-12-15T15:35:23.075Z,5.23
2022-12-15T15:40:26.676Z,3.97
2022-12-15T15:45:31.803Z,4.10
2022-12-15T15:50:35.669Z,4.80
2022-12-15T15:55:40.505Z,4.23
2022-12-15T16:00:45.781Z,3.77
2022-12-15T16:05:50.184Z,3.57
2022-12-15T16:10:54.053Z,3.87
2022-12-15T16:15:59.156Z,3.40
2022-12-15T16:21:02.799Z,3.50
2022-12-15T16:26:06.800Z,3.87
2022-12-15T16:31:16.799Z,4.07
2022-12-15T16:36:20.536Z,3.97
2022-12-15T16:41:27.629Z,3.73
2022-12-15T16:46:32.699Z,3.63
2022-12-15T16:51:39.853Z,3.80
2022-12-15T16:56:43.548Z,3.97
2022-12-15T17:01:49.117Z,3.57
2022-12-15T17:06:53.109Z,3.87
2022-12-15T17:11:57.589Z,4.13
2022-12-15T17:17:03.582Z,4.33
2022-12-15T17:22:07.082Z,4.10
2022-12-15T17:27:18.828Z,4.00
2022-12-15T17:32:23.773Z,3.67
2022-12-15T17:37:33.477Z,3.83
2022-12-15T17:42:38.804Z,4.57
2022-12-15T17:47:43.710Z,5.30
2022-12-15T17:52:49.440Z,5.07
2022-12-15T17:57:55.431Z,5.20
2022-12-15T18:03:01.879Z,4.63
2022-12-15T18:08:15.142Z,4.40
2022-12-15T18:13:21.540Z,4.10
2022-12-15T18:18:27.530Z,3.70
2022-12-15T18:23:32.225Z,4.07
2022-12-15T18:28:36.748Z,4.17
2022-12-15T18:33:41.741Z,4.17
2022-12-15T18:38:45.616Z,5.37
2022-12-15T18:43:58.539Z,5.20
2022-12-15T18:49:03.798Z,4.77
2022-12-15T18:54:07.499Z,4.20
2022-12-15T18:59:15.642Z,3.93
2022-12-15T19:04:20.766Z,4.03
2022-12-15T19:09:24.430Z,4.50
2022-12-15T19:14:43.360Z,4.53
2022-12-15T19:20:05.871Z,4.87
2022-12-15T19:25:12.728Z,4.80
2022-12-15T19:30:18.211Z,5.60
2022-12-15T19:35:24.271Z,6.73
2022-12-15T19:40:30.709Z,5.70
2022-12-15T19:45:34.658Z,5.13
2022-12-15T19:50:41.662Z,5.23
2022-12-15T19:55:45.850Z,5.50
2022-12-15T20:00:49.933Z,5.20
2022-12-15T20:05:57.106Z,5.73
2022-12-15T20:11:00.893Z,4.73
2022-12-15T20:16:04.686Z,4.80
2022-12-15T20:21:10.588Z,6.77
2022-12-15T20:26:17.432Z,5.57
2022-12-15T20:31:24.221Z,5.27
2022-12-15T20:36:31.530Z,5.30
2022-12-15T20:41:35.194Z,4.43
2022-12-15T20:46:39.006Z,3.97
2022-12-15T20:51:44.822Z,4.37
2022-12-15T20:56:49.501Z,3.57
2022-12-15T21:01:54.963Z,4.10
2022-12-15T21:07:00.161Z,4.27
2022-12-15T21:12:09.038Z,4.43
2022-12-15T21:17:16.311Z,4.20
2022-12-15T21:22:24.821Z,4.63
2022-12-15T21:27:28.789Z,4.03
2022-12-15T21:32:32.603Z,3.87
2022-12-15T21:37:37.838Z,4.30
2022-12-15T21:42:41.421Z,4.87
2022-12-15T21:48:02.821Z,4.73
2022-12-15T21:53:10.492Z,4.13
2022-12-15T21:58:20.210Z,4.50
2022-12-15T22:03:23.827Z,4.87
2022-12-15T22:08:29.207Z,4.33
2022-12-15T22:13:33.212Z,5.37
2022-12-15T22:18:37.146Z,5.03
2022-12-15T22:23:42.160Z,4.93
2022-12-15T22:28:45.818Z,5.33
2022-12-15T22:33:49.844Z,5.87
2022-12-15T22:38:54.777Z,5.47
2022-12-15T22:43:58.767Z,5.07
2022-12-15T22:49:03.031Z,4.60
2022-12-15T22:54:18.791Z,5.40
2022-12-15T22:59:27.831Z,4.80
2022-12-15T23:04:31.811Z,5.83
2022-12-15T23:09:37.104Z,4.63
2022-12-15T23:15:03.542Z,5.70
2022-12-15T23:20:08.084Z,6.70
2022-12-15T23:25:13.234Z,7.10
2022-12-15T23:30:17.259Z,8.47
2022-12-15T23:35:21.150Z,9.13
2022-12-15T23:40:26.191Z,7.20
2022-12-15T23:45:29.901Z,5.27
2022-12-15T23:50:33.549Z,5.17
2022-12-15T23:55:38.720Z,6.97
